createdAt,value
2024-02-05T00:02:45.693Z,12.14
2024-02-05T00:05:47.484Z,12.22
2024-02-05T00:08:49.241Z,12.20
2024-02-05T00:11:51.042Z,12.20
2024-02-05T00:14:53.282Z,12.31
2024-02-05T00:17:55.039Z,12.31
2024-02-05T00:20:56.858Z,12.39
2024-02-05T00:23:58.793Z,12.38
2024-02-05T00:27:00.814Z,12.35
2024-02-05T00:30:02.692Z,12.44
2024-02-05T00:33:04.793Z,12.43
2024-02-05T00:36:06.900Z,12.36
2024-02-05T00:39:11.445Z,12.39
2024-02-05T00:42:14.583Z,12.15
2024-02-05T00:45:17.173Z,12.34
2024-02-05T00:48:19.016Z,12.35
2024-02-05T00:51:20.848Z,12.17
2024-02-05T00:54:22.676Z,12.25
2024-02-05T00:57:27.774Z,12.21
2024-02-05T01:00:29.655Z,12.25
2024-02-05T01:03:31.961Z,12.12
2024-02-05T01:06:33.903Z,12.14
2024-02-05T01:09:35.803Z,12.10
2024-02-05T01:12:40.570Z,11.86
2024-02-05T01:15:42.510Z,12.07
2024-02-05T01:18:44.463Z,12.18
2024-02-05T01:21:46.296Z,12.20
2024-02-05T01:24:48.145Z,12.16
2024-02-05T01:27:49.947Z,12.20
2024-02-05T01:30:51.737Z,12.03
2024-02-05T01:33:53.722Z,12.14
2024-02-05T01:36:55.532Z,12.06
2024-02-05T01:39:57.347Z,12.15
2024-02-05T01:42:59.178Z,12.18
2024-02-05T01:46:02.540Z,12.01
2024-02-05T01:49:11.997Z,11.89
2024-02-05T01:52:19.305Z,11.93
2024-02-05T01:55:24.581Z,11.74
2024-02-05T01:58:26.815Z,11.86
2024-02-05T02:01:30.631Z,11.89
2024-02-05T02:04:34.185Z,11.87
2024-02-05T02:07:36.241Z,11.73
2024-02-05T02:10:38.888Z,11.62
2024-02-05T02:13:40.753Z,11.71
2024-02-05T02:16:42.920Z,11.66
2024-02-05T02:19:50.415Z,11.84
2024-02-05T02:22:57.665Z,11.47
2024-02-05T02:26:00.950Z,11.43
2024-02-05T02:29:02.778Z,11.55
2024-02-05T02:32:31.502Z,11.38
2024-02-05T02:36:06.104Z,11.47
2024-02-05T02:39:16.970Z,11.30
2024-02-05T02:42:23.160Z,11.48
2024-02-05T02:45:25.976Z,11.50
2024-02-05T02:48:29.257Z,11.44
2024-02-05T02:51:31.198Z,11.47
2024-02-05T02:54:33.188Z,11.52
2024-02-05T02:57:35.068Z,11.51
2024-02-05T03:00:37.464Z,11.58
2024-02-05T03:03:39.459Z,11.60
2024-02-05T03:06:41.264Z,11.52
2024-02-05T03:09:43.122Z,11.50
2024-02-05T03:12:44.965Z,11.64
2024-02-05T03:15:46.847Z,11.50
2024-02-05T03:18:49.304Z,11.62
2024-02-05T03:21:51.550Z,11.63
2024-02-05T03:24:54.427Z,11.37
2024-02-05T03:27:57.852Z,11.25
2024-02-05T03:30:59.737Z,11.25
2024-02-05T03:34:01.835Z,11.27
2024-02-05T03:37:04.076Z,11.39
2024-02-05T03:40:07.036Z,11.29
2024-02-05T03:43:08.949Z,11.46
2024-02-05T03:46:11.471Z,11.03
2024-02-05T03:49:13.419Z,11.04
2024-02-05T03:52:15.427Z,10.88
2024-02-05T03:55:17.445Z,10.88
2024-02-05T03:58:19.373Z,10.95
2024-02-05T04:01:21.285Z,10.76
2024-02-05T04:04:23.144Z,10.97
2024-02-05T04:07:25.388Z,10.93
2024-02-05T04:10:30.879Z,10.65
2024-02-05T04:13:32.882Z,10.72
2024-02-05T04:16:34.685Z,10.86
2024-02-05T04:19:36.818Z,10.92
2024-02-05T04:22:41.396Z,10.74
2024-02-05T04:25:43.194Z,10.52
2024-02-05T04:28:45.061Z,10.54
2024-02-05T04:31:48.111Z,10.50
2024-02-05T04:34:50.136Z,10.32
2024-02-05T04:37:52.005Z,10.23
2024-02-05T04:40:54.019Z,10.38
2024-02-05T04:43:55.783Z,10.44
2024-02-05T04:46:58.438Z,10.49
2024-02-05T04:50:01.586Z,10.27
2024-02-05T04:53:03.493Z,10.02
2024-02-05T04:56:05.556Z,10.22
2024-02-05T04:59:07.329Z,10.22
2024-02-05T05:02:09.287Z,10.20
2024-02-05T05:05:11.409Z,10.43
2024-02-05T05:08:13.266Z,10.39
2024-02-05T05:11:24.534Z,10.62
2024-02-05T05:14:26.320Z,10.59
2024-02-05T05:17:28.116Z,10.69
2024-02-05T05:20:29.875Z,10.64
2024-02-05T05:23:31.633Z,10.72
2024-02-05T05:26:33.708Z,10.69
2024-02-05T05:29:35.488Z,10.79
2024-02-05T05:32:37.270Z,10.84
2024-02-05T05:35:39.047Z,10.87
2024-02-05T05:38:41.959Z,10.90
2024-02-05T05:41:43.836Z,10.99
2024-02-05T05:44:46.156Z,10.98
2024-02-05T05:47:49.435Z,11.05
2024-02-05T05:50:52.118Z,11.09
2024-02-05T05:53:53.885Z,11.08
2024-02-05T05:56:56.133Z,11.14
2024-02-05T05:59:58.248Z,11.21
2024-02-05T06:03:00.260Z,11.20
2024-02-05T06:06:03.328Z,11.22
2024-02-05T06:09:06.433Z,11.33
2024-02-05T06:12:08.518Z,11.27
2024-02-05T06:15:11.231Z,11.39
2024-02-05T06:18:14.891Z,11.45
2024-02-05T06:21:16.984Z,11.51
2024-02-05T06:24:19.522Z,11.46
2024-02-05T06:27:23.378Z,11.49
2024-02-05T06:30:25.391Z,11.69
2024-02-05T06:33:27.336Z,11.63
2024-02-05T06:36:29.204Z,11.65
2024-02-05T06:39:30.945Z,11.65
2024-02-05T06:42:32.904Z,11.67
2024-02-05T06:45:38.701Z,11.73
2024-02-05T06:48:41.085Z,11.81
2024-02-05T06:51:43.180Z,11.67
2024-02-05T06:54:45.205Z,11.77
2024-02-05T06:57:47.019Z,11.90
2024-02-05T07:00:48.982Z,11.90
2024-02-05T07:03:50.843Z,12.06
2024-02-05T07:06:52.779Z,12.06
2024-02-05T07:09:54.713Z,12.09
2024-02-05T07:12:56.572Z,12.16
2024-02-05T07:15:58.471Z,12.23
2024-02-05T07:19:00.335Z,12.19
2024-02-05T07:22:02.239Z,12.20
2024-02-05T07:25:04.388Z,12.21
2024-02-05T07:28:07.352Z,12.21
2024-02-05T07:31:10.719Z,12.30
2024-02-05T07:34:12.694Z,12.36
2024-02-05T07:37:14.967Z,12.43
2024-02-05T07:40:17.184Z,12.55
2024-02-05T07:43:19.195Z,12.59
2024-02-05T07:46:21.649Z,12.51
2024-02-05T07:49:24.059Z,12.67
2024-02-05T07:52:27.297Z,12.83
2024-02-05T07:55:29.144Z,12.88
2024-02-05T07:58:31.093Z,12.99
2024-02-05T08:01:33.134Z,13.08
2024-02-05T08:04:35.025Z,13.18
2024-02-05T08:07:37.221Z,13.13
2024-02-05T08:10:39.299Z,13.30
2024-02-05T08:13:41.249Z,13.31
2024-02-05T08:16:43.040Z,13.40
2024-02-05T08:19:44.951Z,13.52
2024-02-05T08:22:47.149Z,13.78
2024-02-05T08:25:48.951Z,13.82
2024-02-05T08:28:50.811Z,13.76
2024-02-05T08:31:53.228Z,13.73
2024-02-05T08:34:56.998Z,13.69
2024-02-05T08:37:58.822Z,13.31
2024-02-05T08:41:00.702Z,13.33
2024-02-05T08:44:03.030Z,13.42
2024-02-05T08:47:05.104Z,13.29
2024-02-05T08:50:08.124Z,13.14
2024-02-05T08:53:10.574Z,13.25
2024-02-05T08:56:12.377Z,13.25
2024-02-05T08:59:14.140Z,13.49
2024-02-05T09:02:16.847Z,13.25
2024-02-05T09:05:21.582Z,13.34
2024-02-05T09:08:27.140Z,13.46
2024-02-05T09:11:34.787Z,13.47
2024-02-05T09:14:38.572Z,13.32
2024-02-05T09:17:40.349Z,13.08
2024-02-05T09:20:45.994Z,13.25
2024-02-05T09:23:47.884Z,13.25
2024-02-05T09:26:49.685Z,13.24
2024-02-05T09:29:51.593Z,13.26
2024-02-05T09:32:53.414Z,13.42
2024-02-05T09:35:55.270Z,13.93
2024-02-05T09:38:57.048Z,13.70
2024-02-05T09:42:02.617Z,14.00
2024-02-05T09:45:11.781Z,15.17
2024-02-05T09:48:27.413Z,16.07
2024-02-05T09:51:38.639Z,16.19
2024-02-05T09:54:42.654Z,17.15
2024-02-05T09:57:45.221Z,17.29
2024-02-05T10:00:47.252Z,17.61
2024-02-05T10:03:50.349Z,18.18
2024-02-05T10:06:54.400Z,18.86
2024-02-05T10:09:57.389Z,18.09
2024-02-05T10:13:00.336Z,19.18
2024-02-05T10:16:02.218Z,19.63
2024-02-05T10:19:06.517Z,18.23
2024-02-05T10:22:09.808Z,18.65
2024-02-05T10:25:13.862Z,17.67
2024-02-05T10:28:21.882Z,18.39
2024-02-05T10:31:23.865Z,17.93
2024-02-05T10:34:26.364Z,18.41
2024-02-05T10:37:28.335Z,19.56
2024-02-05T10:40:35.955Z,19.74
2024-02-05T10:43:44.429Z,18.99
2024-02-05T10:46:47.050Z,18.27
2024-02-05T10:49:49.299Z,17.47
2024-02-05T10:52:51.533Z,17.52
2024-02-05T10:55:58.880Z,17.18
2024-02-05T10:59:04.717Z,16.46
2024-02-05T11:02:22.750Z,17.07
2024-02-05T11:05:26.559Z,17.61
2024-02-05T11:08:34.696Z,18.00
2024-02-05T11:11:41.648Z,18.04
2024-02-05T11:14:48.757Z,18.45
2024-02-05T11:17:53.483Z,18.32
2024-02-05T11:20:58.766Z,18.15
2024-02-05T11:24:01.559Z,17.56
2024-02-05T11:27:05.786Z,17.28
2024-02-05T11:30:10.882Z,17.55
2024-02-05T11:33:13.872Z,16.81
2024-02-05T11:36:15.875Z,17.09
2024-02-05T11:39:18.517Z,16.80
2024-02-05T11:42:20.600Z,16.85
2024-02-05T11:45:22.454Z,17.24
2024-02-05T11:48:26.047Z,17.58
2024-02-05T11:51:30.935Z,17.76
2024-02-05T11:54:34.334Z,17.57
2024-02-05T11:57:36.129Z,17.31
2024-02-05T12:00:38.088Z,16.81
2024-02-05T12:03:40.020Z,16.53
2024-02-05T12:06:44.638Z,16.84
2024-02-05T12:09:47.636Z,17.89
2024-02-05T12:12:49.615Z,19.01
2024-02-05T12:15:51.644Z,17.95
2024-02-05T12:19:08.363Z,17.14
2024-02-05T12:22:16.212Z,16.28
2024-02-05T12:25:31.034Z,16.20
2024-02-05T12:28:41.084Z,16.22
2024-02-05T12:31:42.891Z,15.84
2024-02-05T12:34:47.538Z,16.09
2024-02-05T12:37:51.599Z,16.40
2024-02-05T12:40:54.200Z,16.38
2024-02-05T12:43:56.185Z,16.76
2024-02-05T12:46:58.379Z,17.41
2024-02-05T12:50:00.898Z,17.41
2024-02-05T12:53:02.797Z,16.93
2024-02-05T12:56:05.506Z,16.67
2024-02-05T12:59:07.394Z,16.69
2024-02-05T13:02:09.299Z,16.28
2024-02-05T13:05:11.690Z,15.88
2024-02-05T13:08:14.921Z,15.79
2024-02-05T13:11:16.905Z,15.24
2024-02-05T13:14:18.856Z,15.42
2024-02-05T13:17:20.736Z,15.08
2024-02-05T13:20:22.516Z,15.24
2024-02-05T13:23:24.357Z,15.22
2024-02-05T13:26:26.783Z,15.19
2024-02-05T13:29:28.609Z,15.01
2024-02-05T13:32:30.423Z,16.74
2024-02-05T13:35:32.223Z,17.14
2024-02-05T13:38:34.851Z,16.54
2024-02-05T13:41:39.673Z,15.85
2024-02-05T13:44:41.429Z,15.79
2024-02-05T13:47:45.131Z,15.94
2024-02-05T13:50:46.888Z,15.84
2024-02-05T13:53:48.641Z,15.88
2024-02-05T13:56:50.618Z,15.63
2024-02-05T13:59:52.403Z,15.55
2024-02-05T14:02:54.219Z,15.26
2024-02-05T14:05:55.998Z,15.46
2024-02-05T14:08:58.146Z,16.32
2024-02-05T14:11:59.965Z,16.54
2024-02-05T14:15:01.864Z,16.42
2024-02-05T14:18:03.845Z,17.26
2024-02-05T14:21:06.193Z,16.80
2024-02-05T14:24:08.854Z,17.16
2024-02-05T14:27:10.683Z,17.10
2024-02-05T14:30:12.717Z,16.87
2024-02-05T14:33:14.555Z,17.27
2024-02-05T14:36:16.417Z,16.93
2024-02-05T14:39:19.255Z,16.88
2024-02-05T14:42:21.056Z,16.65
2024-02-05T14:45:22.887Z,16.58
2024-02-05T14:48:24.753Z,16.31
2024-02-05T14:51:27.850Z,16.03
2024-02-05T14:54:29.613Z,16.14
2024-02-05T14:57:32.837Z,16.17
2024-02-05T15:00:34.709Z,16.04
2024-02-05T15:03:36.526Z,16.06
2024-02-05T15:06:38.338Z,15.91
2024-02-05T15:09:41.479Z,15.26
2024-02-05T15:12:45.000Z,15.31
2024-02-05T15:15:46.803Z,15.44
2024-02-05T15:18:49.599Z,15.33
2024-02-05T15:21:52.710Z,15.15
2024-02-05T15:24:54.582Z,14.97
2024-02-05T15:27:56.367Z,14.80
2024-02-05T15:30:58.199Z,14.76
2024-02-05T15:34:00.491Z,14.71
2024-02-05T15:37:02.557Z,14.71
2024-02-05T15:40:06.093Z,14.56
2024-02-05T15:43:08.218Z,14.47
2024-02-05T15:46:10.265Z,14.27
2024-02-05T15:49:14.055Z,14.42
2024-02-05T15:52:16.064Z,14.22
2024-02-05T15:55:18.570Z,14.09
2024-02-05T15:58:21.036Z,14.15
2024-02-05T16:01:22.942Z,14.11
2024-02-05T16:04:28.069Z,14.10
2024-02-05T16:07:31.502Z,13.87
2024-02-05T16:10:36.177Z,13.88
2024-02-05T16:13:38.535Z,13.72
2024-02-05T16:16:42.284Z,13.65
2024-02-05T16:19:44.479Z,13.69
2024-02-05T16:22:49.550Z,13.64
2024-02-05T16:25:51.431Z,13.25
2024-02-05T16:28:53.263Z,13.32
2024-02-05T16:31:55.091Z,13.39
2024-02-05T16:34:56.915Z,13.39
2024-02-05T16:37:58.944Z,13.47
2024-02-05T16:41:00.820Z,13.42
2024-02-05T16:44:02.604Z,13.35
2024-02-05T16:47:04.771Z,13.29
2024-02-05T16:50:07.545Z,13.25
2024-02-05T16:53:09.395Z,13.22
2024-02-05T16:56:12.187Z,13.12
2024-02-05T16:59:14.179Z,13.00
2024-02-05T17:02:17.382Z,12.92
2024-02-05T17:05:20.222Z,12.72
2024-02-05T17:08:23.325Z,12.56
2024-02-05T17:11:25.115Z,12.58
2024-02-05T17:14:26.963Z,12.50
2024-02-05T17:17:28.782Z,12.48
2024-02-05T17:20:30.871Z,12.45
2024-02-05T17:23:33.110Z,12.14
2024-02-05T17:26:35.056Z,12.05
2024-02-05T17:29:36.846Z,12.15
2024-02-05T17:32:38.647Z,12.19
2024-02-05T17:35:40.951Z,12.06
2024-02-05T17:38:42.737Z,11.91
2024-02-05T17:41:44.533Z,11.89
2024-02-05T17:44:46.830Z,11.79
2024-02-05T17:47:48.661Z,11.86
2024-02-05T17:50:50.642Z,11.86
2024-02-05T17:53:52.582Z,12.07
2024-02-05T17:56:55.210Z,12.04
2024-02-05T17:59:56.984Z,12.14
2024-02-05T18:02:58.776Z,12.21
2024-02-05T18:06:00.650Z,12.24
2024-02-05T18:09:02.414Z,12.28
2024-02-05T18:12:06.741Z,12.32
2024-02-05T18:15:11.853Z,12.35
2024-02-05T18:18:14.756Z,12.35
2024-02-05T18:21:17.128Z,12.32
2024-02-05T18:24:21.697Z,12.18
2024-02-05T18:27:24.223Z,12.28
2024-02-05T18:30:26.023Z,12.25
2024-02-05T18:33:27.857Z,12.25
2024-02-05T18:36:29.743Z,12.16
2024-02-05T18:39:33.527Z,12.14
2024-02-05T18:42:35.360Z,12.20
2024-02-05T18:45:37.174Z,12.10
2024-02-05T18:48:39.931Z,12.12
2024-02-05T18:51:41.766Z,12.01
2024-02-05T18:54:44.815Z,12.21
2024-02-05T18:57:47.053Z,12.07
2024-02-05T19:00:49.037Z,12.02
2024-02-05T19:03:51.273Z,12.17
2024-02-05T19:06:53.179Z,12.02
2024-02-05T19:09:55.156Z,11.83
2024-02-05T19:12:57.892Z,12.05
2024-02-05T19:16:00.022Z,12.05
2024-02-05T19:19:01.996Z,11.99
2024-02-05T19:22:04.169Z,12.03
2024-02-05T19:25:06.849Z,12.04
2024-02-05T19:28:09.060Z,12.05
2024-02-05T19:31:10.917Z,12.01
2024-02-05T19:34:14.589Z,11.65
2024-02-05T19:37:16.730Z,11.60
2024-02-05T19:40:19.090Z,11.52
2024-02-05T19:43:21.042Z,11.68
2024-02-05T19:46:23.035Z,11.23
2024-02-05T19:49:25.078Z,10.76
2024-02-05T19:52:26.963Z,11.06
2024-02-05T19:55:31.890Z,10.87
2024-02-05T19:58:33.803Z,10.85
2024-02-05T20:01:36.010Z,10.86
2024-02-05T20:04:37.982Z,10.85
2024-02-05T20:07:39.988Z,10.74
2024-02-05T20:10:42.013Z,10.81
2024-02-05T20:13:43.838Z,10.82
2024-02-05T20:16:45.704Z,10.71
2024-02-05T20:19:53.687Z,10.63
2024-02-05T20:22:56.508Z,10.80
2024-02-05T20:25:58.243Z,10.78
2024-02-05T20:29:00.037Z,10.85
2024-02-05T20:32:01.873Z,10.88
2024-02-05T20:35:04.408Z,10.91
2024-02-05T20:38:06.336Z,11.06
2024-02-05T20:41:08.133Z,10.93
2024-02-05T20:44:13.222Z,11.05
2024-02-05T20:47:15.012Z,10.66
2024-02-05T20:50:17.313Z,10.76
2024-02-05T20:53:21.689Z,10.76
2024-02-05T20:56:27.938Z,10.70
2024-02-05T20:59:29.745Z,10.68
2024-02-05T21:02:32.890Z,10.69
2024-02-05T21:05:35.398Z,10.52
2024-02-05T21:08:37.264Z,10.35
2024-02-05T21:11:39.187Z,10.11
2024-02-05T21:14:41.129Z,10.10
2024-02-05T21:17:43.093Z,10.24
2024-02-05T21:20:45.035Z,10.20
2024-02-05T21:23:46.821Z,10.03
2024-02-05T21:26:48.602Z,10.09
2024-02-05T21:29:50.438Z,10.04
2024-02-05T21:32:53.520Z,10.06
2024-02-05T21:35:55.290Z,10.15
2024-02-05T21:38:57.817Z,9.96
2024-02-05T21:41:59.981Z,10.00
2024-02-05T21:45:02.602Z,10.03
2024-02-05T21:48:05.236Z,10.03
2024-02-05T21:51:08.069Z,10.02
2024-02-05T21:54:09.861Z,10.01
2024-02-05T21:57:11.726Z,9.83
2024-02-05T22:00:13.736Z,9.98
2024-02-05T22:03:15.581Z,9.93
2024-02-05T22:06:17.425Z,9.89
2024-02-05T22:09:19.248Z,9.76
2024-02-05T22:12:21.714Z,9.92
2024-02-05T22:15:23.472Z,9.79
2024-02-05T22:18:25.469Z,9.80
2024-02-05T22:21:27.319Z,9.58
2024-02-05T22:24:29.199Z,9.66
2024-02-05T22:27:31.023Z,9.72
2024-02-05T22:30:34.992Z,9.84
2024-02-05T22:33:37.624Z,9.88
2024-02-05T22:36:39.583Z,9.85
2024-02-05T22:39:41.757Z,9.88
2024-02-05T22:42:43.799Z,9.98
2024-02-05T22:45:45.833Z,9.88
2024-02-05T22:48:47.705Z,9.82
2024-02-05T22:51:49.530Z,9.89
2024-02-05T22:54:51.693Z,9.74
2024-02-05T22:57:53.606Z,9.65
2024-02-05T23:00:58.575Z,9.64
2024-02-05T23:04:01.728Z,9.65
2024-02-05T23:07:04.512Z,9.67
2024-02-05T23:10:08.878Z,9.62
2024-02-05T23:13:10.847Z,9.52
2024-02-05T23:16:12.763Z,9.52
2024-02-05T23:19:15.108Z,9.48
2024-02-05T23:22:18.034Z,9.47
2024-02-05T23:25:20.521Z,9.18
2024-02-05T23:28:22.331Z,9.12
2024-02-05T23:31:24.248Z,9.23
2024-02-05T23:34:26.159Z,9.15
2024-02-05T23:37:34.404Z,9.03
2024-02-05T23:40:36.430Z,8.97
2024-02-05T23:43:38.288Z,8.95
2024-02-05T23:46:40.178Z,8.44
2024-02-05T23:49:42.206Z,8.00
2024-02-05T23:52:44.115Z,8.05
2024-02-05T23:55:46.106Z,7.74
2024-02-05T23:58:48.148Z,7.27
